createdAt,value
2018-07-10T02:40:43.152Z,5.40
2018-07-10T02:43:11.729Z,4.75
2018-07-10T02:45:40.141Z,5.97
2018-07-10T02:48:08.635Z,4.72
2018-07-10T02:50:37.348Z,5.10
2018-07-10T02:53:05.762Z,4.78
2018-07-10T02:55:34.129Z,3.33
2018-07-10T02:58:02.632Z,6.30
2018-07-10T03:00:31.236Z,5.97
2018-07-10T03:03:00.699Z,7.10
2018-07-10T03:05:30.400Z,6.95
2018-07-10T03:07:58.790Z,6.37
2018-07-10T03:10:27.196Z,7.17
2018-07-10T03:12:55.680Z,9.55
2018-07-10T03:15:24.141Z,7.70
2018-07-10T03:17:52.952Z,7.40
2018-07-10T03:20:21.423Z,7.35
2018-07-10T03:22:50.027Z,7.15
2018-07-10T03:25:18.570Z,5.78
2018-07-10T03:27:47.204Z,6.75
2018-07-10T03:30:15.695Z,5.80
2018-07-10T03:32:44.321Z,7.60
2018-07-10T03:35:12.777Z,5.62
2018-07-10T03:37:41.236Z,5.87
2018-07-10T03:40:09.782Z,8.37
2018-07-10T03:42:38.246Z,6.95
2018-07-10T03:45:07.097Z,9.93
2018-07-10T03:47:35.558Z,6.35
2018-07-10T03:50:04.066Z,5.25
2018-07-10T03:52:37.235Z,5.72
2018-07-10T03:55:08.993Z,6.40
2018-07-10T03:57:37.654Z,6.45
2018-07-10T04:00:08.620Z,6.17
2018-07-10T04:02:40.554Z,5.70
2018-07-10T04:05:09.110Z,6.70
2018-07-10T04:07:37.552Z,5.60
2018-07-10T04:10:06.339Z,5.08
2018-07-10T04:12:36.751Z,7.15
2018-07-10T04:15:05.806Z,5.97
2018-07-10T04:17:41.829Z,5.33
2018-07-10T04:20:10.786Z,5.80
2018-07-10T04:22:43.340Z,5.60
2018-07-10T04:25:11.924Z,4.28
2018-07-10T04:27:51.475Z,4.67
2018-07-10T04:30:27.606Z,6.05
2018-07-10T04:32:56.398Z,6.50
2018-07-10T04:35:27.722Z,5.53
2018-07-10T04:37:56.364Z,5.30
2018-07-10T04:40:25.905Z,5.67
2018-07-10T04:43:01.104Z,5.97
2018-07-10T04:45:38.382Z,6.03
2018-07-10T04:48:11.290Z,4.67
2018-07-10T04:50:48.814Z,5.30
2018-07-10T04:53:29.071Z,5.77
2018-07-10T04:55:58.214Z,6.73
2018-07-10T04:58:26.798Z,4.65
2018-07-10T05:00:58.050Z,6.10
2018-07-10T05:03:26.958Z,4.65
2018-07-10T05:05:55.462Z,5.30
2018-07-10T05:08:23.980Z,5.03
2018-07-10T05:10:54.260Z,4.17
2018-07-10T05:13:23.301Z,5.17
2018-07-10T05:15:55.782Z,4.30
2018-07-10T05:18:24.300Z,4.62
2018-07-10T05:20:52.815Z,4.05
2018-07-10T05:23:21.429Z,5.40
2018-07-10T05:25:53.510Z,3.10
2018-07-10T05:28:22.278Z,4.35
2018-07-10T05:30:50.798Z,4.45
2018-07-10T05:33:21.612Z,4.87
2018-07-10T05:35:51.014Z,4.37
2018-07-10T05:38:25.076Z,3.15
2018-07-10T05:40:53.616Z,5.55
2018-07-10T05:43:22.252Z,4.72
2018-07-10T05:45:51.732Z,4.97
2018-07-10T05:48:20.360Z,4.70
2018-07-10T05:50:48.917Z,4.03
2018-07-10T05:53:17.332Z,4.40
2018-07-10T05:55:47.818Z,5.12
2018-07-10T05:58:16.292Z,6.97
2018-07-10T06:00:44.822Z,5.27
2018-07-10T06:03:13.448Z,5.62
2018-07-10T06:05:41.943Z,4.97
2018-07-10T06:08:11.582Z,4.13
2018-07-10T06:10:40.311Z,4.35
2018-07-10T06:13:09.128Z,5.87
2018-07-10T06:15:37.671Z,3.90
2018-07-10T06:18:06.804Z,5.22
2018-07-10T06:20:35.348Z,6.50
2018-07-10T06:23:04.150Z,4.47
2018-07-10T06:25:34.692Z,4.85
2018-07-10T06:28:13.016Z,4.50
2018-07-10T06:30:42.500Z,3.72
2018-07-10T06:33:15.021Z,4.37
2018-07-10T06:36:14.009Z,3.40
2018-07-10T06:38:47.980Z,6.37
2018-07-10T06:41:17.528Z,3.62
2018-07-10T06:43:49.461Z,4.28
2018-07-10T06:46:20.347Z,4.25
2018-07-10T06:48:52.583Z,5.10
2018-07-10T06:51:21.147Z,3.45
2018-07-10T06:53:53.082Z,6.08
2018-07-10T06:56:29.560Z,3.98
2018-07-10T06:59:05.724Z,5.58
2018-07-10T07:01:34.941Z,5.17
2018-07-10T07:04:08.086Z,6.28
2018-07-10T07:06:37.379Z,5.22
2018-07-10T07:09:06.098Z,4.42
2018-07-10T07:11:34.912Z,4.28
2018-07-10T07:14:04.056Z,4.67
2018-07-10T07:16:33.049Z,5.45
2018-07-10T07:19:11.436Z,4.97
2018-07-10T07:21:40.542Z,5.35
2018-07-10T07:24:09.518Z,4.30
2018-07-10T07:26:38.803Z,5.05
2018-07-10T07:29:08.099Z,5.17
2018-07-10T07:31:36.844Z,6.42
2018-07-10T07:34:05.990Z,6.62
2018-07-10T07:36:34.547Z,5.15
2018-07-10T07:39:04.604Z,4.43
2018-07-10T07:41:33.134Z,6.03
2018-07-10T07:44:02.582Z,5.50
2018-07-10T07:46:32.267Z,5.58
2018-07-10T07:49:01.363Z,5.33
2018-07-10T07:51:31.288Z,5.58
2018-07-10T07:54:00.554Z,5.10
2018-07-10T07:56:29.174Z,6.58
2018-07-10T08:02:08.834Z,5.77
2018-07-10T08:04:37.756Z,5.33
2018-07-10T08:07:06.362Z,4.10
2018-07-10T08:12:32.976Z,4.75
2018-07-10T08:15:02.421Z,4.75
2018-07-10T08:34:56.964Z,5.08
2018-07-10T08:37:26.778Z,7.53
2018-07-10T08:39:55.276Z,3.50
2018-07-10T08:42:24.548Z,4.62
2018-07-10T08:44:53.662Z,5.20
2018-07-10T08:47:22.390Z,4.37
2018-07-10T08:49:51.842Z,6.15
2018-07-10T08:52:20.356Z,6.22
2018-07-10T08:54:49.066Z,4.80
2018-07-10T08:57:18.009Z,6.58
2018-07-10T08:59:49.182Z,5.87
2018-07-10T09:02:18.744Z,5.87
2018-07-10T09:04:47.436Z,6.08
2018-07-10T09:07:17.728Z,7.15
2018-07-10T09:09:46.630Z,7.23
2018-07-10T09:12:15.138Z,9.28
2018-07-10T09:14:43.623Z,6.07
2018-07-10T09:17:12.172Z,5.45
2018-07-10T09:19:40.812Z,8.35
2018-07-10T09:22:11.824Z,7.10
2018-07-10T09:24:52.010Z,5.83
2018-07-10T09:27:21.861Z,6.77
2018-07-10T09:29:51.239Z,6.85
2018-07-10T09:32:25.372Z,6.22
2018-07-10T09:34:56.270Z,6.10
2018-07-10T09:37:30.054Z,6.72
2018-07-10T09:40:04.319Z,7.67
2018-07-10T09:42:36.204Z,4.83
2018-07-10T09:45:05.430Z,6.92
2018-07-10T09:47:34.388Z,6.97
2018-07-10T09:50:04.362Z,7.55
2018-07-10T09:52:33.563Z,5.15
2018-07-10T09:55:02.363Z,5.80
2018-07-10T09:57:31.652Z,5.45
2018-07-10T10:00:00.347Z,6.60
2018-07-10T10:02:31.102Z,6.08
2018-07-10T10:05:02.306Z,5.10
2018-07-10T10:07:36.154Z,4.73
2018-07-10T10:10:05.438Z,7.25
2018-07-10T10:12:34.413Z,4.90
2018-07-10T10:15:03.068Z,4.87
2018-07-10T10:17:36.658Z,5.43
2018-07-10T10:20:05.216Z,5.33
2018-07-10T10:22:33.889Z,5.97
2018-07-10T10:25:03.984Z,6.33
2018-07-10T10:27:51.183Z,6.45
2018-07-10T10:30:21.259Z,6.00
2018-07-10T10:32:50.150Z,5.70
2018-07-10T10:35:18.809Z,5.78
2018-07-10T10:37:48.005Z,6.57
2018-07-10T10:40:16.879Z,6.40
2018-07-10T10:42:45.658Z,5.40
2018-07-10T10:45:15.220Z,5.72
2018-07-10T10:47:44.138Z,6.28
2018-07-10T10:50:12.648Z,5.70
2018-07-10T10:52:41.202Z,6.75
2018-07-10T10:55:09.988Z,5.70
2018-07-10T10:57:40.032Z,4.95
2018-07-10T11:00:09.436Z,4.95
2018-07-10T11:02:38.033Z,4.25
2018-07-10T11:05:07.080Z,5.43
2018-07-10T11:07:37.901Z,4.75
2018-07-10T11:10:06.408Z,4.83
2018-07-10T11:12:35.058Z,4.55
2018-07-10T11:15:05.538Z,4.03
2018-07-10T11:17:44.714Z,4.15
2018-07-10T11:22:22.621Z,4.87
2018-07-10T11:25:01.410Z,6.40
2018-07-10T11:28:07.223Z,4.53
2018-07-10T11:30:36.001Z,3.95
2018-07-10T11:33:06.074Z,5.53
2018-07-10T11:35:36.752Z,4.55
2018-07-10T11:38:11.460Z,5.05
2018-07-10T11:40:42.384Z,5.33
2018-07-10T11:43:11.802Z,4.13
2018-07-10T11:45:40.429Z,5.17
2018-07-10T11:48:14.110Z,5.90
2018-07-10T11:50:42.729Z,4.77
2018-07-10T11:53:11.451Z,4.53
2018-07-10T11:55:40.410Z,5.53
2018-07-10T11:58:14.092Z,5.20
2018-07-10T12:00:43.006Z,4.50
2018-07-10T12:03:11.732Z,5.05
2018-07-10T12:05:41.730Z,5.00
2018-07-10T12:08:19.878Z,4.17
2018-07-10T12:11:11.803Z,4.67
2018-07-10T12:13:41.190Z,4.40
2018-07-10T12:16:10.305Z,3.50
2018-07-10T12:18:39.054Z,3.87
2018-07-10T12:21:09.096Z,3.65
2018-07-10T12:23:37.908Z,4.73
2018-07-10T12:26:07.514Z,3.45
2018-07-10T12:28:36.572Z,4.35
2018-07-10T12:31:05.529Z,5.05
2018-07-10T12:33:34.366Z,3.62
2018-07-10T12:36:03.251Z,3.47
2018-07-10T12:38:32.031Z,3.40
2018-07-10T12:41:00.673Z,3.57
2018-07-10T12:43:29.197Z,3.80
2018-07-10T12:45:57.845Z,4.70
2018-07-10T12:48:27.012Z,3.40
2018-07-10T12:50:56.319Z,5.07
2018-07-10T12:53:26.944Z,4.70
2018-07-10T12:55:55.610Z,3.05
2018-07-10T12:58:25.409Z,4.40
2018-07-10T13:00:54.742Z,3.37
2018-07-10T13:03:23.652Z,5.10
2018-07-10T13:05:57.730Z,3.57
2018-07-10T13:08:27.245Z,3.17
2018-07-10T13:10:55.872Z,3.67
2018-07-10T13:13:24.489Z,2.80
2018-07-10T13:15:53.095Z,4.25
2018-07-10T13:18:25.567Z,3.67
2018-07-10T13:20:54.487Z,5.50
2018-07-10T13:23:23.124Z,4.03
2018-07-10T13:25:52.451Z,3.15
2018-07-10T13:28:22.202Z,4.17
2018-07-10T13:30:51.483Z,2.43
2018-07-10T13:33:21.745Z,3.83
2018-07-10T13:35:51.229Z,4.87
2018-07-10T13:38:21.923Z,4.03
2018-07-10T13:40:51.707Z,3.08
2018-07-10T13:43:21.091Z,2.60
2018-07-10T13:45:50.942Z,4.37
2018-07-10T13:48:20.550Z,3.27
2018-07-10T13:50:49.499Z,4.83
2018-07-10T13:53:18.715Z,3.77
2018-07-10T13:55:47.663Z,4.28
2018-07-10T13:58:27.054Z,2.47
2018-07-10T14:00:59.738Z,4.62
2018-07-10T14:03:28.860Z,2.70
2018-07-10T14:05:56.341Z,2.55
2018-07-10T14:08:25.310Z,3.92
2018-07-10T14:10:54.267Z,2.37
2018-07-10T14:13:23.352Z,3.33
2018-07-10T14:15:51.798Z,2.70
2018-07-10T14:18:20.771Z,2.70
2018-07-10T14:20:54.659Z,2.30
2018-07-10T14:23:23.859Z,4.72
2018-07-10T14:25:53.835Z,2.50
2018-07-10T14:28:22.601Z,4.33
2018-07-10T14:30:51.203Z,2.70
2018-07-10T14:33:20.350Z,2.87
2018-07-10T14:35:48.929Z,2.20
2018-07-10T14:38:20.406Z,3.30
2018-07-10T14:40:50.488Z,2.25
2018-07-10T14:43:26.191Z,2.98
2018-07-10T14:45:57.407Z,2.63
2018-07-10T14:48:32.015Z,2.50
2018-07-10T14:51:00.746Z,2.25
2018-07-10T14:53:29.614Z,3.33
2018-07-10T14:56:03.224Z,4.47
2018-07-10T14:58:37.104Z,4.58
2018-07-10T15:01:07.019Z,2.67
2018-07-10T15:03:35.914Z,2.50
2018-07-10T15:06:04.992Z,3.37
2018-07-10T15:08:33.472Z,2.30
2018-07-10T15:11:02.249Z,2.70
2018-07-10T15:13:36.216Z,2.55
2018-07-10T15:16:05.756Z,2.08
2018-07-10T15:18:39.552Z,2.95
2018-07-10T15:21:08.046Z,2.50
2018-07-10T15:23:36.783Z,2.47
2018-07-10T15:26:05.756Z,2.52
2018-07-10T15:28:34.192Z,2.12
2018-07-10T15:31:02.869Z,2.40
2018-07-10T15:33:32.656Z,2.25
2018-07-10T15:36:01.169Z,2.70
2018-07-10T15:38:32.137Z,3.00
2018-07-10T15:41:01.976Z,2.25
2018-07-10T15:43:30.811Z,3.17
2018-07-10T15:45:59.294Z,2.52
2018-07-10T15:48:28.399Z,4.37
2018-07-10T15:50:57.348Z,2.17
2018-07-10T15:53:27.282Z,2.63
2018-07-10T15:55:57.642Z,2.95
2018-07-10T15:58:27.279Z,3.17
2018-07-10T16:00:55.881Z,3.73
2018-07-10T16:03:24.929Z,2.92
2018-07-10T16:05:53.803Z,3.33
2018-07-10T16:08:27.198Z,3.67
2018-07-10T16:10:58.309Z,2.87
2018-07-10T16:13:29.912Z,2.98
2018-07-10T16:16:00.162Z,2.83
2018-07-10T16:18:30.880Z,2.80
2018-07-10T16:21:02.203Z,2.70
2018-07-10T16:23:33.008Z,2.87
2018-07-10T16:26:06.537Z,3.45
2018-07-10T16:28:37.374Z,3.27
2018-07-10T16:31:06.581Z,3.95
2018-07-10T16:33:35.453Z,3.45
2018-07-10T16:36:06.453Z,5.37
2018-07-10T16:38:36.673Z,4.37
2018-07-10T16:41:15.350Z,4.12
2018-07-10T16:43:45.982Z,3.60
2018-07-10T16:46:17.368Z,4.83
2018-07-10T16:48:51.998Z,3.47
2018-07-10T16:51:25.724Z,3.75
2018-07-10T16:53:58.429Z,3.47
2018-07-10T16:56:27.571Z,4.83
2018-07-10T16:58:57.829Z,4.33
2018-07-10T17:01:28.069Z,4.08
2018-07-10T17:04:01.664Z,3.65
2018-07-10T17:06:30.337Z,3.00
2018-07-10T17:08:59.103Z,3.80
2018-07-10T17:11:27.933Z,4.35
2018-07-10T17:13:57.604Z,3.72
2018-07-10T17:16:29.184Z,3.60
2018-07-10T17:18:58.447Z,3.70
2018-07-10T17:21:28.342Z,3.30
2018-07-10T17:23:59.264Z,3.35
2018-07-10T17:26:28.821Z,3.87
2018-07-10T17:28:57.629Z,3.55
2018-07-10T17:31:26.956Z,3.60
2018-07-10T17:33:56.568Z,3.50
2018-07-10T17:36:25.862Z,3.72
2018-07-10T17:38:54.660Z,4.67
2018-07-10T17:41:24.666Z,3.52
2018-07-10T17:43:54.205Z,3.70
2018-07-10T17:46:23.897Z,3.20
2018-07-10T17:48:53.489Z,4.00
2018-07-10T17:51:22.649Z,4.15
2018-07-10T17:53:51.278Z,3.75
2018-07-10T17:56:20.257Z,3.30
2018-07-10T17:58:48.907Z,3.33
2018-07-10T18:01:18.006Z,3.87
2018-07-10T18:03:46.642Z,3.12
2018-07-10T18:06:15.315Z,3.40
2018-07-10T18:08:44.105Z,3.58
2018-07-10T18:11:12.739Z,3.40
2018-07-10T18:13:41.449Z,3.30
2018-07-10T18:16:10.080Z,3.30
2018-07-10T18:18:38.993Z,3.37
2018-07-10T18:21:07.637Z,4.22
2018-07-10T18:23:36.462Z,3.67
2018-07-10T18:26:04.967Z,3.20
2018-07-10T18:28:33.613Z,3.90
2018-07-10T18:31:02.481Z,4.12
2018-07-10T18:33:31.860Z,4.10
2018-07-10T18:36:00.625Z,5.03
2018-07-10T18:38:29.370Z,3.87
2018-07-10T18:40:58.036Z,4.23
2018-07-10T18:43:26.582Z,3.83
2018-07-10T18:45:55.193Z,3.20
2018-07-10T18:48:26.549Z,3.90
2018-07-10T18:50:56.017Z,4.00
2018-07-10T18:53:24.595Z,3.80
2018-07-10T18:55:53.852Z,3.62
2018-07-10T18:58:28.740Z,4.03
2018-07-10T19:01:20.371Z,4.08
2018-07-10T19:03:49.617Z,4.50
2018-07-10T19:06:21.374Z,4.78
2018-07-10T19:08:50.271Z,4.35
2018-07-10T19:11:23.364Z,5.47
2018-07-10T19:13:52.732Z,5.80
2018-07-10T19:16:23.399Z,5.67
2018-07-10T19:18:52.805Z,4.85
2018-07-10T19:21:28.638Z,5.30
2018-07-10T19:24:04.519Z,3.98
2018-07-10T19:26:34.897Z,4.53
2018-07-10T19:29:24.585Z,4.47
2018-07-10T19:31:54.326Z,4.20
2018-07-10T19:34:23.486Z,4.03
2018-07-10T19:36:52.268Z,4.00
2018-07-10T19:39:21.194Z,4.10
2018-07-10T19:41:50.086Z,4.30
2018-07-10T19:44:18.998Z,3.95
2018-07-10T19:46:47.934Z,4.42
2018-07-10T19:49:18.034Z,5.60
2018-07-10T19:51:49.655Z,5.20
2018-07-10T19:54:18.751Z,5.92
2018-07-10T19:56:48.272Z,4.67
2018-07-10T19:59:18.229Z,4.35
2018-07-10T20:01:51.915Z,4.47
2018-07-10T20:04:26.995Z,5.08
2018-07-10T20:07:11.336Z,5.12
2018-07-10T20:09:57.057Z,4.45
2018-07-10T20:12:39.030Z,5.00
2018-07-10T20:15:14.200Z,5.15
2018-07-10T20:18:58.017Z,4.58
2018-07-10T20:21:38.562Z,4.97
2018-07-10T20:24:15.562Z,5.47
2018-07-10T20:27:05.742Z,5.67
2018-07-10T20:29:46.493Z,5.05
2018-07-10T20:32:20.112Z,4.75
2018-07-10T20:34:57.126Z,4.58
2018-07-10T20:37:29.687Z,4.40
2018-07-10T20:39:58.875Z,4.92
2018-07-10T20:42:39.437Z,4.85
2018-07-10T20:45:08.974Z,4.87
2018-07-10T20:47:51.336Z,5.83
2018-07-10T20:50:31.810Z,4.92
2018-07-10T20:53:03.059Z,5.50
2018-07-10T20:55:38.066Z,5.00
2018-07-10T20:58:10.382Z,4.92
2018-07-10T21:00:49.100Z,5.05
2018-07-10T21:03:28.298Z,5.00
2018-07-10T21:06:03.742Z,5.30
2018-07-10T21:08:37.060Z,4.97
2018-07-10T21:11:10.686Z,5.03
2018-07-10T21:14:17.055Z,5.35
2018-07-10T21:16:51.733Z,6.17
2018-07-10T21:19:31.652Z,5.07
2018-07-10T21:24:11.182Z,4.95
2018-07-10T21:26:45.242Z,5.17
2018-07-10T21:29:29.172Z,4.85
2018-07-10T21:32:03.249Z,4.95
2018-07-10T21:34:46.569Z,4.80
2018-07-10T21:37:54.641Z,5.50
2018-07-10T21:40:35.058Z,5.53
2018-07-10T21:43:27.770Z,6.00
2018-07-10T21:46:00.852Z,5.15
2018-07-10T21:48:52.148Z,5.87
2018-07-10T21:51:22.036Z,5.33
2018-07-10T21:53:50.633Z,5.47
2018-07-10T21:56:19.321Z,5.47
2018-07-10T21:58:48.897Z,5.70
2018-07-10T22:02:20.820Z,5.95
2018-07-10T22:04:53.092Z,5.80
2018-07-10T22:07:22.009Z,5.42
2018-07-10T22:09:50.980Z,5.75
2018-07-10T22:12:20.723Z,8.00
2018-07-10T22:14:49.230Z,5.97
2018-07-10T22:17:22.994Z,5.75
2018-07-10T22:19:52.928Z,6.15
2018-07-10T22:22:23.583Z,7.10
2018-07-10T22:24:53.157Z,6.05
2018-07-10T22:27:22.441Z,6.78
2018-07-10T22:29:58.707Z,5.83
2018-07-10T22:32:32.503Z,6.50
2018-07-10T22:35:03.374Z,5.70
2018-07-10T22:37:31.908Z,6.47
2018-07-10T22:40:00.856Z,6.25
2018-07-10T22:42:30.689Z,6.10
2018-07-10T22:45:07.152Z,6.22
2018-07-10T22:47:40.177Z,6.33
2018-07-10T22:50:19.465Z,6.42
2018-07-10T22:52:57.616Z,6.55
2018-07-10T22:55:29.612Z,6.10
2018-07-10T22:58:04.237Z,6.53
2018-07-10T23:00:36.132Z,6.23
2018-07-10T23:03:23.738Z,6.25
2018-07-10T23:05:54.332Z,6.17
2018-07-10T23:08:32.355Z,7.47
2018-07-10T23:11:03.309Z,7.33
2018-07-10T23:13:33.337Z,6.70
2018-07-10T23:16:02.972Z,6.90
2018-07-10T23:18:31.923Z,6.80
2018-07-10T23:21:00.832Z,6.35
2018-07-10T23:23:29.735Z,6.90
2018-07-10T23:25:59.054Z,7.22
2018-07-10T23:28:38.667Z,7.33
2018-07-10T23:31:07.511Z,7.25
2018-07-10T23:33:36.070Z,7.72
2018-07-10T23:36:06.080Z,7.45
2018-07-10T23:38:39.800Z,7.10
2018-07-10T23:42:24.963Z,7.50
2018-07-10T23:44:53.901Z,7.65
2018-07-10T23:47:28.399Z,7.62
2018-07-10T23:50:11.631Z,7.75
2018-07-10T23:52:48.103Z,7.70
2018-07-10T23:55:16.715Z,7.77
2018-07-10T23:57:45.467Z,7.60
